Airfield :
LOGIN :

Register | Disclaimer

   EN    FR    IT 

 










Legend :    VFR   Marginal VFR   IFR   Intensive IFR   Very Intensive IFR
Visi :
Ceiling :
>= 8 km
>= 3000ft
5 to 8 km
1000 to 3000 ft
1500m to 5 km
500 to 1000 ft
800 to 1500m
200 to 500 ft
< 800m
< 200 ft
Symbols :   Thunderstorms  Fog  Heavy snow  Heavy precipitations  Wind > 20 kt
SIGMETs :     Misc.  Thunderstorms  Icing  Turbulence  Mountain Waves  Volcanic Ashes







- Airport Elevation : 52 ft
- IATA code : RNN


EKRN - Bornholm Ronne

CURRENT METAR :
  • 222150Z AUTO 09001KT 9999NDV NCD 02/M00 Q1022

EXPIRED METARs :
  • 222120Z AUTO 06002KT 9999NDV NCD 02/M00 Q1021
  • 222050Z AUTO 20005KT 9999NDV NCD 04/01 Q1021
  • 222020Z AUTO VRB03KT 9999NDV NCD 05/01 Q1021
  • 221950Z AUTO 24003KT 9999NDV NCD 05/01 Q1020
  • 221920Z AUTO 21003KT 9999NDV NCD 04/01 Q1020

TAF TAF EKRN
Valid from the 22 at 18:00 until the 22 at 23:00 UTC


221721Z 2218/2223 22006KT CAVOK
No reported NOTAMs for that airfield.



MET'MAP, your aeronautical weather chart ! - Copyright ORBIFLY December 2007 - Disclaimer

ORBIFLY MET'MAP TEAM :

Programming & Development : Alexandra Zaïnal
Concept & Development : Baudouin d'Aumeries
Co-Development & Prog : Marc-Olivier Méhu
Technical & hardware support : Manuel Goepfert

Contact : metmap@orbifly.com




SOURCES & CREDITS :

   NOAA